Time;durP1;ratioP1;P1;durP2;ratioP2;P2;SDS_P1;SDS_P2;PMS_P1;PMS_P2;Temp;Humidity;BMP_temperature;BMP_pressure;BME280_temperature;BME280_humidity;BME280_pressure;Samples;Min_cycle;Max_cycle;Signal;HPM_P1;HPM_P2
2023/10/09 00:01:01;;;;;;;7.07;3.67;;;22.80;48.60;;;;;;6205255;28;80090;-61
2023/10/09 00:04:02;;;;;;;7.70;4.18;;;22.80;48.60;;;;;;6201601;28;81447;-63
2023/10/09 00:07:03;;;;;;;7.38;4.32;;;22.80;48.60;;;;;;6201419;28;80419;-62
2023/10/09 00:10:12;;;;;;;6.05;3.50;;;22.80;48.70;;;;;;6205881;28;80238;-60
2023/10/09 00:13:13;;;;;;;5.90;3.92;;;22.80;48.60;;;;;;6212953;28;81437;-62
2023/10/09 00:16:15;;;;;;;7.00;4.35;;;22.80;48.50;;;;;;6238613;27;80110;-62
2023/10/09 00:19:20;;;;;;;6.43;4.03;;;22.80;48.50;;;;;;6216565;28;80254;-62
2023/10/09 00:25:30;;;;;;;5.38;3.65;;;22.70;48.40;;;;;;6211928;28;81726;-63
2023/10/09 00:28:30;;;;;;;7.20;3.55;;;22.70;48.40;;;;;;6225462;28;80696;-63
2023/10/09 00:31:33;;;;;;;5.80;3.38;;;22.70;48.50;;;;;;6226172;28;83584;-63
2023/10/09 00:34:39;;;;;;;8.55;4.10;;;22.70;48.50;;;;;;6224979;27;81254;-63
2023/10/09 00:37:39;;;;;;;5.50;3.72;;;22.70;48.40;;;;;;6225551;27;82146;-63
2023/10/09 00:40:46;;;;;;;6.55;3.75;;;22.70;48.40;;;;;;6215547;28;81076;-62
2023/10/09 00:43:49;;;;;;;10.10;3.47;;;22.70;48.40;;;;;;6224863;28;80559;-61
2023/10/09 00:46:51;;;;;;;6.78;3.83;;;22.70;48.50;;;;;;6223190;28;81403;-61
2023/10/09 00:49:59;;;;;;;5.47;2.88;;;22.70;48.50;;;;;;6225412;28;80279;-61
2023/10/09 00:53:03;;;;;;;6.05;3.22;;;22.70;48.50;;;;;;6224166;27;80515;-61
2023/10/09 00:56:11;;;;;;;7.13;4.10;;;22.70;48.60;;;;;;6223229;28;81292;-62
2023/10/09 00:59:14;;;;;;;5.75;3.22;;;22.70;48.50;;;;;;6224545;27;80737;-61
2023/10/09 01:02:19;;;;;;;6.18;3.42;;;22.70;48.60;;;;;;6224637;27;80261;-62
2023/10/09 01:05:19;;;;;;;7.20;3.90;;;22.70;48.70;;;;;;6224205;27;80529;-60
2023/10/09 01:08:43;;;;;;;8.10;3.35;;;22.60;48.50;;;;;;6229086;28;81858;-60
2023/10/09 01:14:59;;;;;;;6.10;3.67;;;22.60;48.50;;;;;;6227985;27;80217;-60
2023/10/09 01:18:00;;;;;;;6.65;3.65;;;22.60;48.60;;;;;;6222145;28;82556;-60
2023/10/09 01:21:02;;;;;;;3.78;2.65;;;22.60;48.60;;;;;;6224327;27;80308;-60
2023/10/09 01:24:03;;;;;;;5.93;3.70;;;22.60;48.50;;;;;;6224983;28;80499;-62
2023/10/09 01:27:05;;;;;;;6.32;3.53;;;22.60;48.60;;;;;;6221414;28;83413;-62
2023/10/09 01:30:06;;;;;;;4.43;2.85;;;22.60;48.50;;;;;;6223329;27;81179;-59
2023/10/09 01:33:12;;;;;;;5.03;3.20;;;22.60;48.60;;;;;;6220732;27;81525;-61
2023/10/09 01:36:15;;;;;;;;;;;22.60;48.70;;;;;;6224507;28;80560;-61
2023/10/09 01:39:23;;;;;;;5.20;3.10;;;22.60;48.70;;;;;;6229934;28;80810;-62
2023/10/09 01:42:31;;;;;;;6.07;3.28;;;22.60;48.50;;;;;;6223907;28;80572;-64
2023/10/09 01:45:41;;;;;;;5.18;3.22;;;22.60;48.60;;;;;;6224735;28;81235;-63
2023/10/09 01:48:46;;;;;;;4.80;3.05;;;22.50;48.50;;;;;;6223072;28;80264;-63
2023/10/09 01:51:48;;;;;;;4.15;2.65;;;22.50;48.50;;;;;;6223537;27;80668;-63
2023/10/09 01:54:49;;;;;;;4.47;2.97;;;22.50;48.50;;;;;;6222821;28;81656;-63
2023/10/09 01:57:50;;;;;;;6.40;3.40;;;22.50;48.60;;;;;;6222272;28;83327;-65
2023/10/09 02:01:01;;;;;;;8.07;3.35;;;22.50;48.70;;;;;;6223788;28;84066;-64
2023/10/09 02:04:08;;;;;;;4.68;3.03;;;22.50;48.70;;;;;;6228028;27;80513;-62
2023/10/09 02:07:09;;;;;;;7.35;3.40;;;22.50;48.60;;;;;;6216692;28;80835;-63
2023/10/09 02:10:21;;;;;;;4.53;2.50;;;22.50;48.50;;;;;;6216732;28;80643;-63
2023/10/09 02:13:29;;;;;;;4.35;2.72;;;22.50;48.50;;;;;;6229105;27;80649;-63
2023/10/09 02:16:29;;;;;;;5.03;3.15;;;22.50;48.60;;;;;;6211126;28;83660;-64
2023/10/09 02:19:38;;;;;;;4.93;2.67;;;22.50;48.60;;;;;;6207558;28;80605;-60
2023/10/09 02:22:40;;;;;;;4.28;2.53;;;22.50;48.50;;;;;;6227012;27;80399;-61
2023/10/09 02:25:43;;;;;;;5.57;3.05;;;22.50;48.90;;;;;;6228032;27;81637;-61
2023/10/09 02:28:48;;;;;;;4.57;2.88;;;22.50;48.40;;;;;;6217864;28;82022;-61
2023/10/09 02:31:51;;;;;;;4.18;2.83;;;22.50;48.50;;;;;;6241904;28;83179;-61
2023/10/09 02:34:53;;;;;;;4.18;2.70;;;22.50;48.40;;;;;;6227416;27;80932;-60
2023/10/09 02:37:54;;;;;;;4.10;2.42;;;22.50;48.40;;;;;;6222586;27;81475;-60
2023/10/09 02:41:17;;;;;;;3.05;2.33;;;22.50;48.50;;;;;;6218218;28;80538;-60
2023/10/09 02:44:24;;;;;;;4.38;2.35;;;22.50;48.50;;;;;;6224956;28;81881;-60
2023/10/09 02:47:29;;;;;;;4.75;2.80;;;22.50;48.50;;;;;;6229715;27;81144;-60
2023/10/09 02:50:31;;;;;;;3.80;2.40;;;22.40;48.50;;;;;;6225230;28;83068;-61
2023/10/09 02:53:34;;;;;;;3.63;2.83;;;22.40;48.50;;;;;;6225261;28;81713;-60
2023/10/09 02:56:42;;;;;;;4.70;2.80;;;22.40;48.40;;;;;;6212097;28;87714;-63
2023/10/09 02:59:44;;;;;;;3.80;2.55;;;22.40;48.50;;;;;;6212329;28;80576;-60
2023/10/09 03:02:46;;;;;;;4.72;2.58;;;22.40;48.50;;;;;;6214032;27;81621;-61
2023/10/09 03:05:49;;;;;;;5.13;2.53;;;22.40;48.50;;;;;;6216751;28;83128;-60
2023/10/09 03:08:50;;;;;;;5.68;3.30;;;22.40;48.50;;;;;;6219859;28;81802;-61
2023/10/09 03:11:53;;;;;;;4.15;2.30;;;22.40;48.50;;;;;;6223384;28;81749;-59
2023/10/09 03:14:58;;;;;;;4.78;2.92;;;22.40;48.60;;;;;;6223693;27;80837;-61
2023/10/09 03:17:59;;;;;;;5.32;2.78;;;22.40;48.50;;;;;;6214948;28;86221;-60
2023/10/09 03:20:59;;;;;;;5.25;3.35;;;22.40;48.50;;;;;;6223213;28;82027;-60
2023/10/09 03:24:04;;;;;;;4.68;2.30;;;22.40;48.60;;;;;;6215847;28;81215;-60
2023/10/09 03:27:05;;;;;;;4.50;1.92;;;22.40;48.50;;;;;;6221806;27;81599;-60
2023/10/09 03:30:05;;;;;;;5.35;2.85;;;22.40;49.20;;;;;;6224839;27;80379;-60
2023/10/09 03:33:11;;;;;;;6.32;2.40;;;22.40;49.50;;;;;;6222612;27;81275;-62
2023/10/09 03:36:11;;;;;;;5.28;2.70;;;22.40;49.10;;;;;;6233723;28;80714;-64
2023/10/09 03:39:47;;;;;;;4.82;2.00;;;22.30;49.10;;;;;;6222169;28;81018;-66
2023/10/09 03:42:42;;;;;;;3.85;2.70;;;22.30;48.90;;;;;;6218772;28;82840;-66
2023/10/09 03:45:46;;;;;;;3.90;2.40;;;22.30;49.10;;;;;;6221741;27;80726;-61
2023/10/09 03:48:47;;;;;;;5.75;2.70;;;22.30;49.10;;;;;;6220955;27;80597;-69
2023/10/09 03:51:49;;;;;;;4.55;2.53;;;22.20;48.80;;;;;;6228588;27;80385;-55
2023/10/09 03:54:50;;;;;;;6.20;2.25;;;22.30;48.80;;;;;;6224894;28;82016;-61
2023/10/09 03:57:50;;;;;;;6.03;2.55;;;22.30;48.80;;;;;;6219297;28;81115;-60
2023/10/09 04:00:51;;;;;;;4.43;2.40;;;22.30;49.00;;;;;;6219673;27;80625;-58
2023/10/09 04:03:55;;;;;;;5.22;2.30;;;22.30;49.30;;;;;;6220754;28;80412;-61
2023/10/09 04:06:55;;;;;;;7.05;2.47;;;22.40;49.60;;;;;;6218081;28;81188;-60
2023/10/09 04:10:26;;;;;;;3.10;2.03;;;22.40;50.10;;;;;;6203899;27;81240;-61
2023/10/09 04:13:17;;;;;;;3.92;2.70;;;22.50;50.20;;;;;;6200111;28;87424;-60
2023/10/09 04:16:34;;;;;;;6.07;2.03;;;22.50;51.00;;;;;;6218206;27;80488;-55
2023/10/09 04:19:47;;;;;;;16.88;2.30;;;22.60;51.30;;;;;;6184639;28;82515;-59
2023/10/09 04:22:51;;;;;;;17.88;2.80;;;22.60;50.90;;;;;;6212824;28;80462;-56
2023/10/09 04:25:52;;;;;;;6.22;2.38;;;22.70;51.00;;;;;;6211014;28;80552;-58
2023/10/09 04:28:53;;;;;;;6.90;2.55;;;22.70;50.50;;;;;;6214472;28;80895;-61
2023/10/09 04:31:55;;;;;;;9.23;2.25;;;22.70;50.60;;;;;;6199739;28;81717;-58
2023/10/09 04:35:21;;;;;;;18.25;2.85;;;22.60;49.70;;;;;;6214374;28;81294;-63
2023/10/09 04:38:19;;;;;;;7.97;2.78;;;22.50;49.40;;;;;;6207167;28;80551;-62
2023/10/09 04:41:27;;;;;;;5.38;2.80;;;22.40;49.20;;;;;;6203340;28;81040;-62
2023/10/09 04:44:35;;;;;;;5.57;2.20;;;22.40;49.30;;;;;;6210014;27;80912;-64
2023/10/09 04:47:36;;;;;;;5.63;1.95;;;22.30;49.00;;;;;;6210245;28;83738;-62
2023/10/09 04:50:45;;;;;;;10.73;3.08;;;22.20;48.80;;;;;;6210951;28;80483;-63
2023/10/09 04:54:12;;;;;;;8.80;2.45;;;22.20;48.50;;;;;;6210889;28;80418;-62
2023/10/09 04:57:17;;;;;;;5.50;2.72;;;22.10;48.30;;;;;;6213407;27;80636;-62
2023/10/09 05:03:29;;;;;;;6.63;2.90;;;22.00;48.10;;;;;;6211728;28;80432;-62
2023/10/09 05:06:42;;;;;;;8.02;2.58;;;22.00;47.90;;;;;;6209770;28;80479;-62
2023/10/09 05:09:55;;;;;;;4.57;2.25;;;21.90;47.80;;;;;;6209655;28;80866;-61
2023/10/09 05:12:59;;;;;;;5.90;2.47;;;21.90;47.80;;;;;;6211273;28;80801;-63
2023/10/09 05:15:59;;;;;;;6.13;3.42;;;21.90;47.80;;;;;;6214452;28;80950;-63
2023/10/09 05:19:03;;;;;;;4.20;2.40;;;21.80;47.80;;;;;;6209544;28;88101;-64
2023/10/09 05:22:16;;;;;;;9.27;2.53;;;21.80;47.70;;;;;;6203271;28;81382;-61
2023/10/09 05:25:39;;;;;;;3.80;2.60;;;21.80;47.70;;;;;;6203106;28;80499;-61
2023/10/09 05:28:52;;;;;;;6.40;2.83;;;21.70;47.70;;;;;;6223185;28;80541;-61
2023/10/09 05:38:05;;;;;;;5.00;2.70;;;21.70;47.60;;;;;;6231211;28;81332;-60
2023/10/09 05:41:31;;;;;;;;;;;21.70;47.50;;;;;;6225748;27;81338;-63
2023/10/09 05:47:57;;;;;;;5.93;3.05;;;21.70;47.50;;;;;;6217304;28;81656;-64
2023/10/09 05:58:36;;;;;;;5.80;2.75;;;21.60;47.40;;;;;;6234486;27;80279;-62
2023/10/09 06:08:04;;;;;;;9.93;3.25;;;21.60;47.10;;;;;;6236010;27;80882;-61
2023/10/09 06:11:38;;;;;;;7.63;3.25;;;21.50;47.10;;;;;;6226812;27;81065;-61
2023/10/09 06:17:43;;;;;;;6.30;2.88;;;21.50;47.10;;;;;;6231260;27;81054;-67
2023/10/09 06:24:14;;;;;;;9.02;2.75;;;21.60;47.00;;;;;;6228069;27;81113;-67
2023/10/09 06:27:38;;;;;;;11.60;3.58;;;21.50;46.90;;;;;;6227212;27;80939;-66
2023/10/09 06:30:36;;;;;;;4.53;2.80;;;21.50;46.90;;;;;;6224961;27;81502;-66
2023/10/09 06:33:57;;;;;;;5.20;2.80;;;21.50;46.90;;;;;;6203443;28;80438;-66
2023/10/09 06:37:03;;;;;;;4.40;2.67;;;21.50;46.80;;;;;;6203295;28;80425;-63
2023/10/09 06:49:33;;;;;;;6.65;2.47;;;21.50;46.50;;;;;;6214563;28;81027;-61
2023/10/09 06:52:57;;;;;;;6.30;3.00;;;21.50;46.50;;;;;;6208333;28;80833;-62
2023/10/09 07:00:15;;;;;;;5.93;3.15;;;21.50;46.50;;;;;;6200966;28;81606;-61
2023/10/09 07:02:45;;;;;;;3.95;2.38;;;21.40;46.40;;;;;;6214580;28;85040;-60
2023/10/09 07:06:05;;;;;;;3.65;2.70;;;21.40;46.40;;;;;;6206468;28;80613;-62
2023/10/09 07:12:09;;;;;;;4.30;2.40;;;21.40;46.20;;;;;;6204589;28;81203;-66
2023/10/09 07:16:23;;;;;;;5.03;2.50;;;21.40;46.20;;;;;;6225815;27;80384;-66
2023/10/09 07:18:49;;;;;;;3.75;2.63;;;21.40;46.20;;;;;;6238332;27;80744;-67
2023/10/09 07:21:54;;;;;;;5.07;2.90;;;21.40;46.20;;;;;;6220028;28;80568;-66
2023/10/09 07:24:57;;;;;;;5.72;2.60;;;21.30;46.10;;;;;;6214362;27;80365;-66
2023/10/09 07:27:59;;;;;;;3.83;2.15;;;21.30;46.10;;;;;;6219296;27;84358;-66
2023/10/09 07:31:00;;;;;;;6.82;2.70;;;21.30;46.10;;;;;;6240654;27;82376;-61
2023/10/09 07:34:07;;;;;;;7.80;2.50;;;21.30;46.00;;;;;;6210000;28;81454;-61
2023/10/09 07:37:07;;;;;;;5.40;2.40;;;21.30;46.00;;;;;;6203133;28;81653;-61
2023/10/09 07:40:08;;;;;;;5.97;2.47;;;21.30;45.90;;;;;;6203143;28;80498;-62
2023/10/09 07:43:16;;;;;;;3.55;2.30;;;21.30;46.00;;;;;;6204133;27;80941;-62
2023/10/09 07:46:52;;;;;;;4.95;2.40;;;21.20;45.90;;;;;;6205153;28;80302;-62
2023/10/09 07:49:53;;;;;;;3.50;2.00;;;21.20;46.00;;;;;;6206111;28;80501;-61
2023/10/09 07:53:14;;;;;;;3.22;1.83;;;21.30;46.10;;;;;;6202298;28;80069;-62
2023/10/09 07:56:19;;;;;;;5.88;2.22;;;21.20;46.20;;;;;;6202198;28;82780;-62
2023/10/09 07:59:19;;;;;;;3.27;2.27;;;21.20;46.60;;;;;;6200382;28;80784;-62
2023/10/09 08:02:31;;;;;;;4.05;2.10;;;21.20;46.40;;;;;;6215301;28;80480;-62
2023/10/09 08:05:44;;;;;;;4.00;2.10;;;21.20;46.50;;;;;;6205150;27;81009;-62
2023/10/09 08:15:26;;;;;;;5.07;1.70;;;21.20;46.70;;;;;;6217227;28;81015;-66
2023/10/09 08:18:31;;;;;;;2.38;1.80;;;21.20;46.80;;;;;;6213968;28;80384;-66
2023/10/09 08:22:07;;;;;;;4.37;2.20;;;21.20;46.70;;;;;;6237907;27;81635;-66
2023/10/09 08:25:04;;;;;;;2.47;1.58;;;21.20;46.80;;;;;;6225082;27;81710;-66
2023/10/09 08:34:48;;;;;;;2.33;1.65;;;21.10;47.00;;;;;;6216565;28;80602;-61
2023/10/09 08:37:48;;;;;;;2.88;1.90;;;21.10;47.20;;;;;;6201162;28;80480;-61
2023/10/09 08:40:50;;;;;;;2.60;1.52;;;21.10;47.20;;;;;;6213473;27;81025;-61
2023/10/09 08:43:51;;;;;;;3.13;1.70;;;21.00;47.20;;;;;;6213196;27;80507;-61
2023/10/09 08:46:51;;;;;;;2.72;1.92;;;21.00;47.30;;;;;;6204531;28;80418;-62
2023/10/09 08:49:52;;;;;;;2.55;1.58;;;21.00;47.40;;;;;;6206568;27;80520;-63
2023/10/09 08:52:53;;;;;;;3.58;1.67;;;21.00;47.50;;;;;;6201269;28;80554;-63
2023/10/09 08:55:55;;;;;;;2.55;1.35;;;21.10;47.60;;;;;;6211771;28;80486;-63
2023/10/09 08:58:55;;;;;;;3.30;1.67;;;21.10;47.50;;;;;;6204760;28;81360;-63
2023/10/09 09:01:59;;;;;;;3.90;1.60;;;21.10;47.50;;;;;;6217965;28;80484;-62
2023/10/09 09:05:00;;;;;;;2.97;1.80;;;21.10;47.50;;;;;;6205735;27;80422;-62
2023/10/09 09:08:02;;;;;;;4.65;2.10;;;21.10;47.60;;;;;;6202805;28;81004;-63
2023/10/09 09:11:12;;;;;;;1.85;1.33;;;21.10;47.60;;;;;;6215359;28;81426;-63
2023/10/09 09:14:18;;;;;;;4.32;1.30;;;21.00;47.60;;;;;;6212408;28;81016;-62
2023/10/09 09:17:19;;;;;;;2.78;1.52;;;21.10;47.70;;;;;;6214387;28;80432;-63
2023/10/09 09:20:33;;;;;;;1.90;1.52;;;21.00;47.60;;;;;;6207094;27;80249;-62
2023/10/09 09:23:34;;;;;;;2.13;1.50;;;21.00;47.70;;;;;;6201312;28;80480;-60
2023/10/09 09:26:37;;;;;;;2.15;1.30;;;21.00;47.60;;;;;;6200495;28;80288;-62
2023/10/09 09:29:37;;;;;;;2.72;1.60;;;21.00;47.70;;;;;;6219620;28;85247;-60
2023/10/09 09:32:39;;;;;;;3.33;1.90;;;21.00;47.60;;;;;;6222710;28;80540;-62
2023/10/09 09:35:42;;;;;;;2.53;1.60;;;20.90;47.60;;;;;;6222581;28;80452;-62
2023/10/09 09:38:49;;;;;;;2.78;1.90;;;21.00;47.70;;;;;;6208959;28;80550;-61
2023/10/09 09:41:51;;;;;;;2.30;1.40;;;21.00;47.70;;;;;;6199637;28;82994;-63
2023/10/09 09:44:52;;;;;;;2.58;1.55;;;20.90;47.60;;;;;;6223859;28;80603;-62
2023/10/09 09:47:54;;;;;;;2.17;1.20;;;20.90;47.60;;;;;;6204746;28;80522;-63
2023/10/09 09:50:54;;;;;;;3.78;1.70;;;20.90;47.60;;;;;;6200946;28;80494;-63
2023/10/09 09:53:55;;;;;;;2.22;1.63;;;20.90;47.60;;;;;;6200669;28;82237;-61
2023/10/09 09:56:55;;;;;;;1.88;1.17;;;20.90;47.60;;;;;;6214293;28;81486;-64
2023/10/09 09:59:56;;;;;;;4.43;1.63;;;20.90;47.70;;;;;;6216808;28;81049;-63
2023/10/09 10:02:57;;;;;;;1.60;1.50;;;21.00;47.80;;;;;;6203251;27;80346;-62
2023/10/09 10:05:58;;;;;;;1.92;1.50;;;21.00;47.80;;;;;;6201423;28;80505;-62
2023/10/09 10:08:59;;;;;;;2.50;1.42;;;21.00;47.90;;;;;;6199363;28;80784;-63
2023/10/09 10:12:04;;;;;;;3.15;1.55;;;20.90;47.40;;;;;;6201666;28;80950;-64
2023/10/09 10:15:16;;;;;;;3.37;1.50;;;20.90;47.40;;;;;;6217072;28;80346;-62
2023/10/09 10:18:19;;;;;;;1.55;1.30;;;20.90;47.50;;;;;;6213181;28;80602;-61
2023/10/09 10:21:41;;;;;;;1.63;1.30;;;20.90;47.40;;;;;;6223924;27;80538;-62
2023/10/09 10:24:53;;;;;;;1.98;1.23;;;20.90;47.50;;;;;;6227254;27;81275;-63
2023/10/09 10:28:00;;;;;;;2.28;1.33;;;20.90;47.50;;;;;;6227412;28;81043;-62
2023/10/09 10:31:01;;;;;;;3.30;1.35;;;20.90;47.50;;;;;;6216044;28;80529;-62
2023/10/09 10:34:06;;;;;;;2.65;1.50;;;20.90;47.60;;;;;;6210569;28;81034;-62
2023/10/09 10:37:08;;;;;;;2.72;1.50;;;20.90;47.70;;;;;;6208306;28;81383;-69
2023/10/09 10:40:13;;;;;;;2.35;1.30;;;20.90;47.80;;;;;;6242029;28;81684;-67
2023/10/09 10:43:19;;;;;;;1.98;1.33;;;20.90;47.70;;;;;;6236789;27;81400;-67
2023/10/09 10:49:40;;;;;;;2.00;1.40;;;20.90;47.80;;;;;;6236702;28;80320;-67
2023/10/09 10:52:44;;;;;;;3.08;1.58;;;20.90;47.90;;;;;;6205110;28;80286;-63
2023/10/09 10:55:52;;;;;;;2.50;1.48;;;21.00;48.60;;;;;;6206343;28;80802;-64
2023/10/09 11:05:38;;;;;;;3.08;2.03;;;21.00;48.30;;;;;;6213407;28;80775;-62
2023/10/09 11:08:36;;;;;;;2.03;1.45;;;21.00;48.30;;;;;;6204724;28;85298;-62
2023/10/09 11:11:42;;;;;;;2.30;1.30;;;21.00;48.40;;;;;;6207990;28;81745;-61
2023/10/09 11:14:45;;;;;;;2.10;1.50;;;21.00;48.50;;;;;;6218065;28;82536;-61
2023/10/09 11:17:46;;;;;;;2.33;1.70;;;21.00;48.50;;;;;;6217630;28;80570;-61
2023/10/09 11:20:56;;;;;;;2.72;1.70;;;21.00;48.60;;;;;;6204299;28;80873;-61
2023/10/09 11:24:23;;;;;;;1.73;1.52;;;21.00;48.60;;;;;;6205461;28;80513;-61
2023/10/09 11:27:24;;;;;;;3.70;1.83;;;21.00;48.70;;;;;;6215026;28;81675;-61
2023/10/09 11:30:32;;;;;;;2.67;1.60;;;21.00;48.80;;;;;;6213287;28;80348;-62
2023/10/09 11:33:33;;;;;;;3.22;1.83;;;21.00;48.70;;;;;;6226763;28;80268;-63
2023/10/09 11:36:34;;;;;;;2.83;1.85;;;21.00;48.70;;;;;;6227739;27;80289;-64
2023/10/09 11:39:34;;;;;;;2.45;1.80;;;21.00;48.90;;;;;;6226660;28;80758;-64
2023/10/09 11:42:48;;;;;;;2.78;1.80;;;21.00;48.80;;;;;;6239748;28;80351;-63
2023/10/09 11:45:55;;;;;;;2.38;1.60;;;21.00;48.70;;;;;;6226713;27;81130;-65
2023/10/09 11:49:15;;;;;;;2.53;1.90;;;21.00;48.60;;;;;;6217138;28;81320;-61
2023/10/09 11:55:34;;;;;;;3.90;1.73;;;21.00;48.90;;;;;;6225771;27;82753;-62
2023/10/09 11:58:40;;;;;;;4.60;2.05;;;21.00;49.00;;;;;;6233695;27;87567;-64
2023/10/09 12:01:42;;;;;;;2.40;1.90;;;21.10;49.00;;;;;;6225911;28;86410;-63
2023/10/09 12:04:43;;;;;;;2.00;1.60;;;21.00;49.50;;;;;;6226032;27;81560;-62
2023/10/09 12:07:43;;;;;;;3.28;2.00;;;21.00;48.90;;;;;;6230050;28;80598;-67
2023/10/09 12:10:47;;;;;;;2.80;1.50;;;21.00;48.90;;;;;;6237050;27;81476;-68
2023/10/09 12:13:48;;;;;;;3.60;2.00;;;21.00;49.10;;;;;;6227922;27;80567;-67
2023/10/09 12:16:49;;;;;;;3.17;1.90;;;21.00;49.00;;;;;;6220498;27;81324;-68
2023/10/09 12:19:51;;;;;;;3.45;2.20;;;21.00;48.90;;;;;;6201738;28;81102;-66
2023/10/09 12:22:52;;;;;;;3.05;1.60;;;21.00;49.00;;;;;;6216810;28;81025;-67
2023/10/09 12:25:56;;;;;;;2.58;1.58;;;21.00;49.10;;;;;;6225867;28;80234;-62
2023/10/09 12:28:57;;;;;;;2.90;1.80;;;21.00;49.00;;;;;;6225633;28;80057;-62
2023/10/09 12:31:58;;;;;;;1.63;1.40;;;21.00;49.00;;;;;;6226306;27;80830;-61
2023/10/09 12:34:58;;;;;;;3.00;1.80;;;21.00;49.00;;;;;;6227794;27;80845;-63
2023/10/09 12:37:59;;;;;;;2.33;1.65;;;21.00;49.00;;;;;;6201859;28;80561;-61
2023/10/09 12:40:59;;;;;;;2.60;1.73;;;21.10;49.10;;;;;;6201703;28;82738;-62
2023/10/09 12:44:01;;;;;;;4.03;1.90;;;21.00;49.10;;;;;;6204222;28;80617;-61
2023/10/09 12:47:04;;;;;;;3.75;1.95;;;21.00;49.10;;;;;;6214405;28;80667;-62
2023/10/09 12:50:09;;;;;;;4.85;1.83;;;21.00;49.20;;;;;;6201215;28;80428;-63
2023/10/09 12:53:10;;;;;;;3.53;1.90;;;21.00;49.10;;;;;;6217133;28;80818;-62
2023/10/09 12:56:12;;;;;;;2.28;1.63;;;21.00;49.20;;;;;;6215541;28;81272;-62
2023/10/09 12:59:14;;;;;;;2.33;1.70;;;21.00;49.30;;;;;;6214817;28;81361;-63
2023/10/09 13:02:30;;;;;;;2.15;1.55;;;21.00;49.20;;;;;;6201899;28;80749;-62
2023/10/09 13:05:30;;;;;;;2.75;1.90;;;21.00;49.30;;;;;;6202501;28;80867;-65
2023/10/09 13:08:31;;;;;;;1.95;1.70;;;21.00;49.30;;;;;;6202961;28;83063;-65
2023/10/09 13:11:32;;;;;;;4.60;1.85;;;21.10;49.40;;;;;;6208838;28;80731;-63
2023/10/09 13:14:34;;;;;;;4.57;2.20;;;21.10;49.40;;;;;;6214680;28;80847;-63
2023/10/09 13:17:35;;;;;;;3.90;2.22;;;21.10;49.40;;;;;;6200922;28;82418;-63
2023/10/09 13:20:36;;;;;;;2.33;1.67;;;21.10;49.50;;;;;;6201824;28;85408;-63
2023/10/09 13:23:40;;;;;;;2.42;1.90;;;21.00;49.20;;;;;;6208917;28;80422;-60
2023/10/09 13:26:41;;;;;;;2.08;1.52;;;21.10;49.40;;;;;;6214398;28;81837;-64
2023/10/09 13:29:41;;;;;;;3.42;2.00;;;21.00;49.40;;;;;;6222184;28;80615;-64
2023/10/09 13:32:48;;;;;;;1.92;1.70;;;21.00;49.50;;;;;;6205732;28;80291;-62
2023/10/09 13:35:50;;;;;;;4.13;1.95;;;21.00;49.40;;;;;;6199893;28;80075;-64
2023/10/09 13:38:51;;;;;;;2.95;1.98;;;21.00;49.50;;;;;;6215715;28;81880;-64
2023/10/09 13:41:57;;;;;;;3.00;1.67;;;21.10;49.60;;;;;;6222728;28;80809;-65
2023/10/09 13:45:04;;;;;;;2.25;2.05;;;21.10;49.60;;;;;;6213929;28;80847;-64
2023/10/09 13:48:05;;;;;;;3.55;2.10;;;21.10;49.60;;;;;;6202329;28;80784;-64
2023/10/09 13:51:08;;;;;;;2.72;2.28;;;21.10;49.50;;;;;;6201271;28;84753;-64
2023/10/09 13:54:09;;;;;;;4.05;2.10;;;21.10;50.20;;;;;;6181257;28;85097;-63
2023/10/09 13:57:10;;;;;;;3.80;2.38;;;21.00;49.50;;;;;;6213949;28;80851;-60
2023/10/09 14:00:11;;;;;;;3.60;2.40;;;21.00;49.50;;;;;;6223240;28;80700;-59
2023/10/09 14:03:13;;;;;;;3.42;2.20;;;21.10;50.30;;;;;;6218986;28;80806;-57
2023/10/09 14:06:14;;;;;;;2.95;2.08;;;21.20;50.50;;;;;;6224159;28;80615;-57
2023/10/09 14:12:34;;;;;;;8.73;2.88;;;21.30;50.50;;;;;;6097271;27;81555;-58
2023/10/09 14:15:39;;;;;;;10.25;2.63;;;21.30;50.90;;;;;;6109941;27;82219;-61
2023/10/09 14:18:40;;;;;;;13.10;2.83;;;21.40;51.00;;;;;;6093980;28;81572;-63
2023/10/09 14:21:41;;;;;;;3.53;2.20;;;21.40;51.00;;;;;;6084597;28;82230;-64
2023/10/09 14:24:45;;;;;;;8.93;2.00;;;21.50;51.10;;;;;;6098934;28;82145;-64
2023/10/09 14:27:48;;;;;;;8.10;2.10;;;21.50;51.00;;;;;;6091293;28;82677;-62
2023/10/09 14:30:56;;;;;;;8.63;2.53;;;21.60;51.20;;;;;;6088106;28;82157;-64
2023/10/09 14:33:57;;;;;;;6.20;2.85;;;21.60;51.40;;;;;;6083293;28;82386;-59
2023/10/09 14:37:00;;;;;;;8.02;2.50;;;21.60;51.30;;;;;;6079246;28;81946;-59
2023/10/09 14:40:01;;;;;;;5.93;3.28;;;21.70;51.60;;;;;;6082103;28;81921;-58
2023/10/09 14:43:03;;;;;;;7.78;2.17;;;21.70;51.20;;;;;;6083848;28;80432;-59
2023/10/09 14:46:10;;;;;;;10.00;2.40;;;21.70;50.70;;;;;;6076934;28;83478;-59
2023/10/09 14:49:14;;;;;;;4.60;2.63;;;21.80;50.60;;;;;;6080965;28;81599;-60
2023/10/09 14:52:18;;;;;;;6.78;2.85;;;21.80;50.60;;;;;;6100632;28;82385;-58
2023/10/09 14:55:20;;;;;;;6.88;2.35;;;21.80;50.40;;;;;;6106896;27;81882;-58
2023/10/09 14:58:24;;;;;;;6.10;2.40;;;21.90;50.20;;;;;;6116476;27;82949;-59
2023/10/09 15:01:25;;;;;;;9.20;2.58;;;21.90;50.00;;;;;;6102948;27;82124;-60
2023/10/09 15:04:25;;;;;;;3.95;2.40;;;21.90;50.00;;;;;;6101985;27;83396;-59
2023/10/09 15:07:28;;;;;;;5.65;2.75;;;22.00;50.20;;;;;;6091310;28;81825;-63
2023/10/09 15:10:29;;;;;;;7.05;2.17;;;22.00;50.20;;;;;;6192899;28;83917;-73
2023/10/09 15:13:30;;;;;;;3.78;2.15;;;22.10;50.10;;;;;;6225886;27;80638;-75
2023/10/09 15:16:31;;;;;;;5.57;2.33;;;22.10;50.20;;;;;;6198087;28;86535;-79
2023/10/09 15:19:32;;;;;;;8.45;3.28;;;22.10;50.10;;;;;;6209501;28;85691;-71
2023/10/09 15:22:36;;;;;;;5.68;3.28;;;22.20;50.10;;;;;;6218786;28;82220;-71
2023/10/09 15:25:39;;;;;;;24.60;9.13;;;22.20;50.40;;;;;;6221957;27;80252;-76
2023/10/09 15:28:40;;;;;;;32.80;9.18;;;22.30;51.20;;;;;;6224089;28;86118;-60
2023/10/09 15:31:41;;;;;;;45.22;9.95;;;22.30;51.30;;;;;;6220193;28;82390;-60
2023/10/09 15:34:43;;;;;;;24.83;8.85;;;22.30;51.30;;;;;;6218020;28;80336;-61
2023/10/09 15:37:45;;;;;;;23.75;7.85;;;22.40;51.40;;;;;;6214770;28;80446;-59
2023/10/09 15:40:47;;;;;;;23.13;8.43;;;22.40;51.40;;;;;;6223914;27;81206;-60
2023/10/09 15:43:48;;;;;;;21.00;7.00;;;22.40;51.30;;;;;;6231055;28;80450;-63
2023/10/09 15:46:48;;;;;;;21.63;6.90;;;22.40;51.30;;;;;;6224758;27;80443;-68
2023/10/09 15:49:54;;;;;;;19.35;7.03;;;22.50;51.50;;;;;;6224813;28;81756;-70
2023/10/09 15:52:54;;;;;;;28.85;7.53;;;22.50;51.40;;;;;;6222737;28;80612;-74
2023/10/09 15:55:57;;;;;;;19.98;7.10;;;22.50;51.40;;;;;;6234583;28;80806;-73
2023/10/09 15:58:57;;;;;;;19.80;6.70;;;22.50;51.60;;;;;;6234126;28;80737;-72
2023/10/09 16:01:59;;;;;;;16.77;6.15;;;22.50;51.70;;;;;;6217183;27;80846;-68
2023/10/09 16:05:00;;;;;;;39.25;7.40;;;22.50;52.10;;;;;;6223825;28;81530;-68
2023/10/09 16:08:00;;;;;;;19.30;5.63;;;22.50;52.10;;;;;;6226428;27;82638;-67
2023/10/09 16:11:01;;;;;;;13.48;5.45;;;22.50;51.90;;;;;;6219056;28;81268;-67
2023/10/09 16:14:01;;;;;;;19.50;6.18;;;22.50;51.90;;;;;;6221277;27;82347;-69
2023/10/09 16:17:02;;;;;;;16.65;5.50;;;22.50;51.60;;;;;;6205771;28;80268;-65
2023/10/09 16:20:02;;;;;;;12.93;5.43;;;22.50;51.40;;;;;;6220679;28;80887;-79
2023/10/09 16:23:04;;;;;;;10.98;4.72;;;22.50;51.60;;;;;;6225197;28;81942;-74
2023/10/09 16:26:06;;;;;;;13.75;5.28;;;22.60;51.70;;;;;;6236461;27;81277;-65
2023/10/09 16:29:11;;;;;;;10.15;4.65;;;22.50;51.50;;;;;;6229315;27;80635;-65
2023/10/09 16:32:12;;;;;;;11.30;5.10;;;22.50;51.40;;;;;;6219895;28;80468;-65
2023/10/09 16:35:12;;;;;;;12.68;5.05;;;22.60;51.90;;;;;;6234206;27;81089;-67
2023/10/09 16:38:13;;;;;;;12.57;4.82;;;22.60;51.50;;;;;;6241034;28;80588;-67
2023/10/09 16:41:13;;;;;;;9.95;4.65;;;22.60;51.70;;;;;;6225322;27;80170;-64
2023/10/09 16:44:17;;;;;;;9.00;4.18;;;22.60;51.80;;;;;;6235756;27;80370;-68
2023/10/09 16:47:17;;;;;;;10.02;5.22;;;22.60;51.90;;;;;;6225667;28;80728;-69
2023/10/09 16:50:19;;;;;;;7.88;4.05;;;22.60;51.90;;;;;;6229425;28;81398;-68
2023/10/09 16:53:20;;;;;;;11.80;4.18;;;22.60;51.90;;;;;;6224473;28;81586;-66
2023/10/09 16:56:20;;;;;;;11.13;3.95;;;22.60;52.00;;;;;;6236931;28;81694;-64
2023/10/09 16:59:22;;;;;;;9.82;3.95;;;22.70;52.20;;;;;;6237283;28;81460;-65
2023/10/09 17:02:23;;;;;;;10.88;4.97;;;22.70;52.10;;;;;;6244353;27;80890;-60
2023/10/09 17:05:32;;;;;;;7.45;4.57;;;22.70;51.90;;;;;;6228410;28;80459;-59
2023/10/09 17:08:39;;;;;;;10.02;4.18;;;22.60;51.70;;;;;;6219843;28;80761;-58
2023/10/09 17:11:40;;;;;;;11.68;4.85;;;22.60;51.50;;;;;;6212095;28;84786;-58
2023/10/09 17:14:41;;;;;;;10.63;5.07;;;22.60;51.70;;;;;;6196018;28;85408;-59
2023/10/09 17:17:45;;;;;;;6.57;3.78;;;22.70;51.70;;;;;;6196267;28;80934;-61
2023/10/09 17:20:48;;;;;;;6.72;4.00;;;22.70;51.50;;;;;;6206008;28;81226;-63
2023/10/09 17:23:49;;;;;;;10.35;4.05;;;22.70;51.40;;;;;;6207169;27;83585;-63